createdAt,value
2022-12-04T00:00:19.545Z,130.18
2022-12-04T00:03:24.550Z,132.25
2022-12-04T00:06:29.408Z,121.65
2022-12-04T00:09:32.791Z,126.88
2022-12-04T00:12:36.431Z,138.27
2022-12-04T00:15:43.518Z,154.27
2022-12-04T00:18:48.585Z,137.65
2022-12-04T00:21:52.383Z,161.73
2022-12-04T00:24:56.189Z,142.05
2022-12-04T00:27:59.395Z,154.90
2022-12-04T00:31:06.105Z,133.65
2022-12-04T00:34:10.705Z,125.80
2022-12-04T00:37:14.006Z,120.32
2022-12-04T00:40:17.507Z,132.68
2022-12-04T00:43:21.631Z,137.55
2022-12-04T00:46:25.174Z,151.45
2022-12-04T00:49:30.007Z,139.02
2022-12-04T00:52:33.235Z,138.65
2022-12-04T00:55:39.416Z,145.57
2022-12-04T00:58:43.423Z,134.07
2022-12-04T01:01:46.635Z,135.40
2022-12-04T01:04:51.389Z,148.63
2022-12-04T01:07:55.132Z,133.75
2022-12-04T01:10:58.507Z,146.48
2022-12-04T01:14:02.094Z,133.77
2022-12-04T01:17:05.542Z,135.10
2022-12-04T01:20:12.496Z,159.60
2022-12-04T01:23:15.913Z,137.73
2022-12-04T01:26:19.127Z,124.75
2022-12-04T01:29:22.424Z,123.70
2022-12-04T01:32:25.657Z,125.25
2022-12-04T01:35:30.327Z,127.10
2022-12-04T01:38:33.716Z,137.38
2022-12-04T01:41:37.134Z,148.15
2022-12-04T01:44:43.476Z,136.43
2022-12-04T01:47:47.015Z,135.38
2022-12-04T01:50:55.130Z,157.15
2022-12-04T01:54:02.180Z,151.38
2022-12-04T01:57:12.497Z,167.93
2022-12-04T02:03:55.302Z,140.73
2022-12-04T02:06:59.948Z,136.13
2022-12-04T02:10:06.387Z,129.70
2022-12-04T02:13:16.047Z,134.65
2022-12-04T02:16:26.039Z,140.82
2022-12-04T02:19:51.244Z,138.82
2022-12-04T02:23:16.654Z,151.55
2022-12-04T02:26:43.609Z,133.90
2022-12-04T02:29:58.332Z,137.90
2022-12-04T02:33:06.310Z,123.30
2022-12-04T02:36:14.192Z,133.30
2022-12-04T02:39:24.045Z,148.07
2022-12-04T02:42:34.030Z,152.45
2022-12-04T02:45:42.578Z,162.15
2022-12-04T02:48:49.538Z,157.25
2022-12-04T02:51:55.956Z,162.70
2022-12-04T02:55:08.021Z,174.07
2022-12-04T02:58:15.116Z,169.00
2022-12-04T03:01:24.234Z,186.98
2022-12-04T03:04:30.655Z,183.43
2022-12-04T03:07:39.120Z,190.15
2022-12-04T03:10:47.371Z,185.02
2022-12-04T03:13:54.710Z,190.07
2022-12-04T03:17:03.939Z,183.32
2022-12-04T03:20:12.061Z,134.27
2022-12-04T03:23:19.647Z,175.77
2022-12-04T03:26:28.426Z,166.52
2022-12-04T03:29:40.252Z,160.63
2022-12-04T03:32:47.898Z,154.50
2022-12-04T03:35:55.151Z,169.40
2022-12-04T03:39:04.112Z,156.10
2022-12-04T03:42:14.754Z,167.88
2022-12-04T03:45:22.920Z,174.05
2022-12-04T03:48:33.751Z,168.27
2022-12-04T03:51:41.682Z,162.60
2022-12-04T03:54:50.237Z,151.95
2022-12-04T03:57:57.796Z,164.55
2022-12-04T04:01:04.473Z,177.50
2022-12-04T04:04:13.934Z,151.52
2022-12-04T04:07:23.443Z,164.93
2022-12-04T04:10:28.416Z,130.73
2022-12-04T04:13:55.389Z,163.90
2022-12-04T04:17:19.797Z,165.50
2022-12-04T04:20:46.223Z,164.77
2022-12-04T04:24:10.256Z,155.85
2022-12-04T04:27:14.518Z,148.00
2022-12-04T04:30:17.803Z,152.52
2022-12-04T04:33:21.472Z,159.65
2022-12-04T04:36:36.739Z,155.27
2022-12-04T04:39:45.039Z,146.63
2022-12-04T04:42:52.568Z,160.32
2022-12-04T04:46:01.720Z,157.30
2022-12-04T04:49:09.187Z,161.15
2022-12-04T04:52:14.171Z,145.18
2022-12-04T04:55:18.687Z,158.68
2022-12-04T04:58:23.012Z,151.75
2022-12-04T05:01:29.157Z,145.63
2022-12-04T05:04:32.379Z,136.93
2022-12-04T05:07:36.979Z,145.68
2022-12-04T05:10:40.158Z,150.13
2022-12-04T05:13:43.739Z,167.30
2022-12-04T05:16:46.889Z,144.88
2022-12-04T05:19:57.386Z,142.50
2022-12-04T05:23:02.271Z,129.77
2022-12-04T05:26:06.289Z,146.80
2022-12-04T05:29:09.432Z,133.57
2022-12-04T05:32:12.570Z,130.32
2022-12-04T05:35:15.756Z,143.55
2022-12-04T05:38:20.483Z,138.52
2022-12-04T05:41:24.136Z,137.00
2022-12-04T05:44:27.338Z,130.52
2022-12-04T05:47:30.461Z,137.85
2022-12-04T05:50:33.835Z,125.65
2022-12-04T05:53:38.635Z,137.68
2022-12-04T05:56:41.881Z,130.07
2022-12-04T05:59:45.088Z,133.70
2022-12-04T06:02:48.349Z,123.35
2022-12-04T06:05:51.667Z,119.95
2022-12-04T06:08:57.833Z,121.00
2022-12-04T06:12:00.999Z,133.93
2022-12-04T06:15:04.667Z,134.68
2022-12-04T06:18:08.605Z,132.80
2022-12-04T06:21:12.484Z,124.25
2022-12-04T06:24:19.051Z,127.60
2022-12-04T06:27:29.684Z,127.40
2022-12-04T06:30:34.661Z,126.40
2022-12-04T06:33:38.254Z,129.88
2022-12-04T06:36:41.437Z,129.43
2022-12-04T06:39:46.221Z,125.68
2022-12-04T06:42:49.632Z,126.47
2022-12-04T06:46:01.555Z,115.15
2022-12-04T06:49:05.127Z,111.18
2022-12-04T06:52:08.463Z,110.55
2022-12-04T06:55:13.376Z,120.03
2022-12-04T06:58:16.623Z,102.82
2022-12-04T07:01:22.504Z,97.43
2022-12-04T07:04:25.917Z,116.32
2022-12-04T07:07:29.202Z,108.45
2022-12-04T07:10:35.935Z,111.00
2022-12-04T07:13:39.339Z,104.05
2022-12-04T07:16:43.738Z,104.10
2022-12-04T07:19:47.141Z,98.55
2022-12-04T07:22:50.557Z,103.75
2022-12-04T07:25:55.432Z,104.00
2022-12-04T07:28:59.567Z,105.45
2022-12-04T07:32:05.527Z,98.70
2022-12-04T07:35:09.471Z,105.72
2022-12-04T07:38:12.746Z,92.28
2022-12-04T07:41:17.742Z,103.68
2022-12-04T07:44:21.065Z,91.82
2022-12-04T07:47:25.194Z,92.60
2022-12-04T07:50:28.500Z,105.35
2022-12-04T07:53:32.484Z,93.75
2022-12-04T07:56:37.432Z,91.47
2022-12-04T07:59:40.742Z,102.78
2022-12-04T08:02:44.086Z,94.35
2022-12-04T08:05:47.545Z,95.90
2022-12-04T08:08:52.234Z,80.25
2022-12-04T08:11:57.045Z,86.80
2022-12-04T08:15:00.648Z,100.07
2022-12-04T08:18:04.384Z,94.15
2022-12-04T08:21:09.031Z,84.85
2022-12-04T08:24:12.754Z,86.25
2022-12-04T08:27:17.701Z,75.28
2022-12-04T08:30:21.303Z,70.78
2022-12-04T08:33:24.762Z,82.68
2022-12-04T08:36:28.680Z,85.40
2022-12-04T08:39:32.456Z,78.65
2022-12-04T08:42:37.376Z,113.32
2022-12-04T08:45:41.211Z,85.40
2022-12-04T08:48:46.163Z,76.45
2022-12-04T08:51:50.069Z,77.95
2022-12-04T08:54:53.979Z,96.80
2022-12-04T08:57:58.952Z,102.72
2022-12-04T09:01:06.705Z,94.78
2022-12-04T09:04:10.415Z,83.70
2022-12-04T09:07:14.714Z,72.95
2022-12-04T09:10:18.383Z,65.70
2022-12-04T09:13:24.076Z,67.35
2022-12-04T09:16:28.177Z,74.90
2022-12-04T09:19:32.231Z,72.10
2022-12-04T09:23:02.391Z,85.35
2022-12-04T09:26:03.743Z,75.22
2022-12-04T09:29:17.497Z,74.13
2022-12-04T09:32:21.204Z,77.07
2022-12-04T09:35:26.348Z,87.80
2022-12-04T09:38:31.361Z,78.90
2022-12-04T09:42:18.631Z,70.72
2022-12-04T09:45:27.147Z,87.90
2022-12-04T09:48:42.743Z,81.50
2022-12-04T09:51:51.083Z,87.07
2022-12-04T09:54:58.058Z,69.70
2022-12-04T09:58:04.857Z,63.30
2022-12-04T10:01:23.473Z,73.28
2022-12-04T10:04:27.562Z,80.72
2022-12-04T10:07:47.511Z,82.30
2022-12-04T10:11:13.044Z,79.65
2022-12-04T10:14:51.722Z,64.75
2022-12-04T10:18:27.676Z,71.93
2022-12-04T10:21:43.906Z,75.50
2022-12-04T10:24:52.510Z,66.80
2022-12-04T10:28:03.490Z,73.57
2022-12-04T10:31:13.884Z,56.55
2022-12-04T10:34:28.224Z,56.35
2022-12-04T10:37:36.047Z,57.10
2022-12-04T10:40:48.901Z,66.18
2022-12-04T10:43:53.092Z,64.10
2022-12-04T10:47:00.548Z,59.60
2022-12-04T10:50:15.956Z,71.03
2022-12-04T10:53:33.186Z,72.57
2022-12-04T10:56:37.691Z,74.90
2022-12-04T10:59:49.899Z,73.93
2022-12-04T11:02:55.100Z,61.95
2022-12-04T11:06:05.895Z,76.70
2022-12-04T11:09:18.160Z,71.55
2022-12-04T11:12:26.532Z,71.65
2022-12-04T11:15:31.071Z,68.75
2022-12-04T11:18:37.215Z,68.28
2022-12-04T11:21:43.013Z,67.60
2022-12-04T11:24:52.992Z,59.67
2022-12-04T11:31:06.056Z,56.63
2022-12-04T11:34:17.871Z,49.95
2022-12-04T11:37:37.295Z,56.30
2022-12-04T11:40:49.440Z,61.38
2022-12-04T11:43:59.641Z,61.10
2022-12-04T11:47:07.211Z,63.72
2022-12-04T11:50:18.951Z,55.38
2022-12-04T11:53:39.905Z,55.33
2022-12-04T11:56:49.345Z,56.08
2022-12-04T12:00:06.824Z,50.58
2022-12-04T12:03:21.851Z,58.38
2022-12-04T12:06:37.115Z,54.60
2022-12-04T12:09:53.634Z,62.10
2022-12-04T12:13:07.992Z,87.65
2022-12-04T12:16:22.001Z,87.15
2022-12-04T12:19:56.352Z,85.85
2022-12-04T12:23:16.452Z,76.28
2022-12-04T12:26:21.818Z,59.00
2022-12-04T12:29:40.642Z,70.88
2022-12-04T12:33:05.084Z,50.38
2022-12-04T12:36:12.750Z,69.35
2022-12-04T12:39:23.089Z,61.80
2022-12-04T12:42:34.074Z,66.93
2022-12-04T12:45:48.744Z,72.10
2022-12-04T12:48:58.634Z,56.85
2022-12-04T12:52:10.507Z,55.95
2022-12-04T12:55:21.383Z,66.15
2022-12-04T12:58:34.088Z,60.25
2022-12-04T13:01:48.531Z,50.70
2022-12-04T13:04:57.125Z,50.40
2022-12-04T13:08:08.037Z,51.50
2022-12-04T13:11:15.676Z,49.33
2022-12-04T13:14:21.690Z,53.53
2022-12-04T13:17:35.279Z,60.65
2022-12-04T13:20:50.964Z,51.40
2022-12-04T13:24:08.901Z,51.25
2022-12-04T13:27:20.041Z,51.38
2022-12-04T13:30:28.761Z,53.75
2022-12-04T13:33:50.853Z,55.28
2022-12-04T13:37:26.479Z,58.63
2022-12-04T13:40:37.726Z,56.60
2022-12-04T13:43:48.829Z,56.17
2022-12-04T13:47:03.241Z,53.88
2022-12-04T13:50:29.437Z,57.65
2022-12-04T13:53:37.284Z,52.30
2022-12-04T13:56:42.697Z,54.38
2022-12-04T13:59:49.104Z,49.10
2022-12-04T14:02:59.597Z,60.42
2022-12-04T14:06:06.850Z,65.05
2022-12-04T14:09:23.524Z,57.40
2022-12-04T14:12:33.964Z,61.38
2022-12-04T14:15:39.828Z,50.88
2022-12-04T14:18:49.005Z,58.88
2022-12-04T14:21:57.201Z,59.55
2022-12-04T14:25:10.219Z,58.72
2022-12-04T14:28:30.606Z,59.60
2022-12-04T14:31:40.130Z,49.15
2022-12-04T14:34:51.131Z,51.55
2022-12-04T14:37:59.570Z,52.72
2022-12-04T14:41:05.077Z,54.22
2022-12-04T14:44:24.618Z,52.33
2022-12-04T14:47:45.001Z,64.03
2022-12-04T14:54:06.715Z,85.57
2022-12-04T14:57:33.883Z,54.33
2022-12-04T15:00:39.195Z,56.10
2022-12-04T15:03:46.934Z,48.10
2022-12-04T15:06:59.726Z,53.15
2022-12-04T15:10:32.413Z,57.13
2022-12-04T15:13:39.359Z,57.53
2022-12-04T15:16:43.650Z,49.13
2022-12-04T15:19:47.095Z,52.85
2022-12-04T15:22:52.720Z,59.75
2022-12-04T15:25:58.878Z,51.72
2022-12-04T15:29:04.407Z,51.70
2022-12-04T15:32:13.114Z,55.17
2022-12-04T15:35:21.802Z,50.70
2022-12-04T15:38:27.220Z,51.72
2022-12-04T15:41:33.297Z,59.20
2022-12-04T15:44:37.943Z,56.38
2022-12-04T15:47:54.472Z,54.05
2022-12-04T15:51:01.178Z,51.55
2022-12-04T15:54:06.409Z,51.63
2022-12-04T15:57:23.713Z,53.72
2022-12-04T16:00:30.008Z,59.45
2022-12-04T16:03:38.620Z,75.68
2022-12-04T16:06:48.437Z,67.80
2022-12-04T16:10:02.878Z,66.00
2022-12-04T16:13:08.204Z,53.92
2022-12-04T16:16:14.805Z,59.00
2022-12-04T16:19:26.065Z,57.00
2022-12-04T16:22:31.458Z,44.38
2022-12-04T16:25:36.539Z,48.42
2022-12-04T16:28:40.038Z,44.33
2022-12-04T16:31:44.275Z,47.00
2022-12-04T16:34:48.550Z,52.45
2022-12-04T16:37:52.439Z,52.22
2022-12-04T16:40:57.522Z,48.58
2022-12-04T16:44:02.877Z,52.05
2022-12-04T16:47:07.547Z,59.63
2022-12-04T16:50:11.789Z,60.95
2022-12-04T16:53:18.459Z,54.30
2022-12-04T16:56:23.936Z,53.38
2022-12-04T16:59:27.570Z,55.08
2022-12-04T17:02:32.059Z,56.13
2022-12-04T17:05:35.981Z,58.70
2022-12-04T17:08:40.687Z,381.45
2022-12-04T17:11:46.878Z,97.82
2022-12-04T17:14:50.422Z,99.55
2022-12-04T17:17:57.452Z,247.95
2022-12-04T17:21:01.499Z,62.13
2022-12-04T17:24:07.151Z,76.35
2022-12-04T17:27:14.469Z,111.50
2022-12-04T17:30:18.892Z,283.60
2022-12-04T17:33:24.268Z,146.95
2022-12-04T17:36:30.069Z,146.65
2022-12-04T17:39:34.549Z,65.10
2022-12-04T17:42:47.821Z,96.63
2022-12-04T17:45:53.149Z,62.03
2022-12-04T17:49:02.579Z,96.32
2022-12-04T17:52:10.261Z,84.63
2022-12-04T17:55:14.054Z,62.80
2022-12-04T17:58:20.544Z,103.05
2022-12-04T18:01:28.089Z,46.97
2022-12-04T18:04:35.608Z,52.78
2022-12-04T18:07:41.269Z,92.43
2022-12-04T18:10:45.149Z,69.63
2022-12-04T18:13:50.771Z,99.78
2022-12-04T18:16:58.670Z,67.15
2022-12-04T18:20:05.029Z,95.20
2022-12-04T18:23:09.874Z,171.25
2022-12-04T18:26:14.980Z,57.63
2022-12-04T18:29:22.764Z,47.45
2022-12-04T18:32:26.313Z,52.22
2022-12-04T18:35:29.870Z,101.32
2022-12-04T18:38:34.555Z,100.90
2022-12-04T18:41:39.004Z,53.13
2022-12-04T18:44:46.695Z,61.63
2022-12-04T18:47:50.199Z,52.30
2022-12-04T18:50:54.843Z,73.07
2022-12-04T18:54:03.615Z,279.08
2022-12-04T18:57:07.094Z,57.22
2022-12-04T19:00:13.044Z,49.25
2022-12-04T19:03:16.816Z,112.68
2022-12-04T19:06:22.926Z,209.52
2022-12-04T19:10:02.604Z,298.88
2022-12-04T19:12:52.887Z,53.97
2022-12-04T19:15:57.832Z,61.05
2022-12-04T19:19:01.652Z,53.13
2022-12-04T19:22:08.746Z,96.43
2022-12-04T19:25:12.995Z,98.25
2022-12-04T19:28:18.034Z,50.40
2022-12-04T19:31:25.114Z,66.00
2022-12-04T19:34:28.991Z,331.05
2022-12-04T19:37:34.913Z,199.07
2022-12-04T19:40:42.001Z,89.13
2022-12-04T19:43:47.646Z,78.05
2022-12-04T19:46:54.122Z,871.88
2022-12-04T19:50:03.208Z,1374.97
2022-12-04T19:53:06.541Z,1999.90
2022-12-04T19:56:12.379Z,237.07
2022-12-04T19:59:18.538Z,100.68
2022-12-04T20:02:23.455Z,62.38
2022-12-04T20:05:28.179Z,532.65
2022-12-04T20:08:31.603Z,877.05
2022-12-04T20:11:38.626Z,157.77
2022-12-04T20:14:50.861Z,51.95
2022-12-04T20:17:58.925Z,56.85
2022-12-04T20:21:03.694Z,53.13
2022-12-04T20:24:13.455Z,78.00
2022-12-04T20:27:17.690Z,345.25
2022-12-04T20:30:22.381Z,56.22
2022-12-04T20:33:27.191Z,55.15
2022-12-04T20:36:32.580Z,55.50
2022-12-04T20:39:36.042Z,59.15
2022-12-04T20:42:39.436Z,64.35
2022-12-04T20:45:42.897Z,146.88
2022-12-04T20:48:49.402Z,48.63
2022-12-04T20:51:53.515Z,53.63
2022-12-04T20:54:57.081Z,56.55
2022-12-04T20:58:04.338Z,51.53
2022-12-04T21:01:13.395Z,57.60
2022-12-04T21:04:22.756Z,65.18
2022-12-04T21:07:27.540Z,48.80
2022-12-04T21:10:33.740Z,53.88
2022-12-04T21:13:57.340Z,59.05
2022-12-04T21:17:06.683Z,46.97
2022-12-04T21:20:13.814Z,59.03
2022-12-04T21:23:32.245Z,48.25
2022-12-04T21:26:36.498Z,50.33
2022-12-04T21:29:41.463Z,57.30
2022-12-04T21:32:46.555Z,56.70
2022-12-04T21:35:51.392Z,54.42
2022-12-04T21:38:55.590Z,64.10
2022-12-04T21:42:16.284Z,62.97
2022-12-04T21:45:21.683Z,55.00
2022-12-04T21:48:25.116Z,69.13
2022-12-04T21:51:56.262Z,65.28
2022-12-04T21:54:56.308Z,54.65
2022-12-04T21:57:59.546Z,47.25
2022-12-04T22:01:11.666Z,42.42
2022-12-04T22:04:15.055Z,44.50
2022-12-04T22:07:19.912Z,49.28
2022-12-04T22:10:23.221Z,52.28
2022-12-04T22:13:26.487Z,55.60
2022-12-04T22:16:30.972Z,54.92
2022-12-04T22:19:35.098Z,52.05
2022-12-04T22:22:42.060Z,47.28
2022-12-04T22:25:45.282Z,49.88
2022-12-04T22:28:49.720Z,52.58
2022-12-04T22:31:53.251Z,47.38
2022-12-04T22:34:56.733Z,46.35
2022-12-04T22:38:02.915Z,44.28
2022-12-04T22:41:09.616Z,49.63
2022-12-04T22:44:12.755Z,47.53
2022-12-04T22:47:16.148Z,38.92
2022-12-04T22:50:19.766Z,51.53
2022-12-04T22:53:24.662Z,49.13
2022-12-04T22:56:30.208Z,51.90
2022-12-04T22:59:33.468Z,48.05
2022-12-04T23:02:36.968Z,46.33
2022-12-04T23:05:40.538Z,47.97
2022-12-04T23:08:45.982Z,44.60
2022-12-04T23:11:52.966Z,44.95
2022-12-04T23:14:56.240Z,45.40
2022-12-04T23:17:59.629Z,44.40
2022-12-04T23:21:04.789Z,36.75
2022-12-04T23:24:09.708Z,38.63
2022-12-04T23:27:12.959Z,38.47
2022-12-04T23:30:20.173Z,37.83
2022-12-04T23:33:26.775Z,39.85
2022-12-04T23:36:30.238Z,38.53
2022-12-04T23:39:34.805Z,34.35
2022-12-04T23:42:38.212Z,36.05
2022-12-04T23:45:41.484Z,36.70
2022-12-04T23:48:46.283Z,36.53
2022-12-04T23:51:49.447Z,37.28
2022-12-04T23:54:54.060Z,36.85
2022-12-04T23:57:57.319Z,38.33
